createdAt,value
2019-03-23T00:00:05.555Z,23.30
2019-03-23T00:02:33.945Z,20.95
2019-03-23T00:05:02.337Z,23.27
2019-03-23T00:07:30.721Z,23.18
2019-03-23T00:09:59.095Z,22.73
2019-03-23T00:12:27.475Z,22.80
2019-03-23T00:14:55.863Z,23.62
2019-03-23T00:17:24.243Z,22.13
2019-03-23T00:19:52.640Z,22.60
2019-03-23T00:22:21.021Z,22.62
2019-03-23T00:24:49.395Z,24.57
2019-03-23T00:27:17.787Z,28.20
2019-03-23T00:29:46.168Z,24.18
2019-03-23T00:32:14.565Z,22.40
2019-03-23T00:34:42.943Z,29.40
2019-03-23T00:37:11.343Z,21.75
2019-03-23T00:39:39.728Z,25.08
2019-03-23T00:42:08.124Z,23.73
2019-03-23T00:44:36.499Z,25.75
2019-03-23T00:47:04.888Z,25.27
2019-03-23T00:49:33.272Z,33.75
2019-03-23T00:52:01.665Z,24.15
2019-03-23T00:54:30.046Z,28.45
2019-03-23T00:56:58.751Z,28.10
2019-03-23T00:59:27.135Z,32.98
2019-03-23T01:01:55.528Z,27.32
2019-03-23T01:04:24.202Z,27.02
2019-03-23T01:06:52.670Z,31.82
2019-03-23T01:09:21.051Z,25.72
2019-03-23T01:11:49.455Z,28.50
2019-03-23T01:14:17.861Z,27.55
2019-03-23T01:16:46.223Z,27.73
2019-03-23T01:19:14.600Z,25.43
2019-03-23T01:21:42.988Z,28.30
2019-03-23T01:24:11.371Z,26.17
2019-03-23T01:26:39.765Z,29.48
2019-03-23T01:29:08.144Z,23.75
2019-03-23T01:31:36.540Z,29.45
2019-03-23T01:34:04.920Z,26.65
2019-03-23T01:36:33.312Z,31.52
2019-03-23T01:39:01.702Z,26.15
2019-03-23T01:41:30.099Z,29.25
2019-03-23T01:43:58.488Z,31.48
2019-03-23T01:46:26.880Z,25.77
2019-03-23T01:48:55.257Z,28.07
2019-03-23T01:51:23.646Z,24.37
2019-03-23T01:53:52.027Z,25.92
2019-03-23T01:56:20.415Z,23.73
2019-03-23T01:58:48.800Z,28.85
2019-03-23T02:01:17.193Z,27.95
2019-03-23T02:03:45.578Z,29.57
2019-03-23T02:06:14.223Z,23.27
2019-03-23T02:08:42.616Z,27.98
2019-03-23T02:11:11.008Z,27.80
2019-03-23T02:13:39.389Z,34.43
2019-03-23T02:16:07.788Z,26.60
2019-03-23T02:18:36.164Z,26.30
2019-03-23T02:21:04.556Z,27.65
2019-03-23T02:23:33.204Z,24.52
2019-03-23T02:26:01.579Z,27.17
2019-03-23T02:28:30.255Z,29.72
2019-03-23T02:30:58.665Z,29.80
2019-03-23T02:33:27.163Z,33.63
2019-03-23T02:35:55.620Z,32.25
2019-03-23T02:38:23.995Z,25.37
2019-03-23T02:40:52.376Z,26.93
2019-03-23T02:43:20.770Z,27.87
2019-03-23T02:45:49.153Z,27.22
2019-03-23T02:48:17.537Z,30.15
2019-03-23T02:50:45.924Z,27.40
2019-03-23T02:53:14.326Z,24.75
2019-03-23T02:55:42.699Z,23.92
2019-03-23T02:58:11.088Z,25.85
2019-03-23T03:00:39.472Z,26.07
2019-03-23T03:03:07.872Z,25.05
2019-03-23T03:05:36.253Z,27.42
2019-03-23T03:08:04.649Z,26.25
2019-03-23T03:10:40.523Z,24.82
2019-03-23T03:13:08.969Z,25.65
2019-03-23T03:15:37.365Z,25.52
2019-03-23T03:18:07.193Z,24.00
2019-03-23T03:20:35.572Z,24.45
2019-03-23T03:23:04.036Z,28.98
2019-03-23T03:25:32.412Z,25.37
2019-03-23T03:28:00.811Z,30.32
2019-03-23T03:30:29.238Z,27.22
2019-03-23T03:32:57.680Z,28.80
2019-03-23T03:35:26.362Z,25.70
2019-03-23T03:37:56.869Z,22.85
2019-03-23T03:40:24.847Z,23.22
2019-03-23T03:42:53.525Z,25.72
2019-03-23T03:45:27.191Z,25.15
2019-03-23T03:47:55.642Z,29.87
2019-03-23T03:50:24.029Z,29.48
2019-03-23T03:52:52.432Z,28.30
2019-03-23T03:55:20.807Z,29.70
2019-03-23T03:57:49.214Z,31.33
2019-03-23T04:00:17.663Z,27.42
2019-03-23T04:02:46.056Z,24.07
2019-03-23T04:05:14.709Z,26.23
2019-03-23T04:07:43.115Z,27.85
2019-03-23T04:10:11.634Z,24.82
2019-03-23T04:12:40.048Z,24.98
2019-03-23T04:15:09.868Z,29.92
2019-03-23T04:17:38.273Z,26.40
2019-03-23T04:20:08.204Z,28.00
2019-03-23T04:22:36.609Z,23.80
2019-03-23T04:25:07.215Z,29.63
2019-03-23T04:30:04.347Z,29.92
2019-03-23T04:32:32.743Z,25.95
2019-03-23T04:35:01.124Z,25.82
2019-03-23T04:37:29.513Z,28.55
2019-03-23T04:39:57.892Z,28.45
2019-03-23T04:42:26.280Z,26.27
2019-03-23T04:44:54.664Z,23.50
2019-03-23T04:47:23.056Z,26.48
2019-03-23T04:49:51.438Z,26.75
2019-03-23T04:52:20.069Z,28.05
2019-03-23T04:54:48.451Z,24.02
2019-03-23T04:57:16.839Z,27.77
2019-03-23T04:59:45.227Z,24.70
2019-03-23T05:02:13.689Z,26.05
2019-03-23T05:04:42.072Z,25.50
2019-03-23T05:07:10.462Z,33.63
2019-03-23T05:09:38.849Z,32.25
2019-03-23T05:12:07.520Z,27.15
2019-03-23T05:14:35.901Z,28.47
2019-03-23T05:17:04.291Z,28.32
2019-03-23T05:19:32.973Z,27.55
2019-03-23T05:22:01.360Z,23.77
2019-03-23T05:24:30.039Z,27.02
2019-03-23T05:26:58.435Z,26.40
2019-03-23T05:29:26.807Z,36.08
2019-03-23T05:31:55.196Z,29.80
2019-03-23T05:34:23.580Z,36.42
2019-03-23T05:36:52.245Z,31.55
2019-03-23T05:39:20.638Z,25.40
2019-03-23T05:41:49.029Z,33.55
2019-03-23T05:44:17.399Z,28.27
2019-03-23T05:46:46.081Z,30.10
2019-03-23T05:49:14.468Z,29.42
2019-03-23T05:51:42.856Z,27.73
2019-03-23T05:54:11.248Z,31.30
2019-03-23T05:56:39.639Z,30.90
2019-03-23T05:59:08.029Z,24.25
2019-03-23T06:01:36.424Z,28.38
2019-03-23T06:04:04.870Z,23.12
2019-03-23T06:06:33.254Z,25.48
2019-03-23T06:09:03.135Z,24.77
2019-03-23T06:11:31.513Z,27.90
2019-03-23T06:13:59.908Z,25.48
2019-03-23T06:16:28.284Z,28.20
2019-03-23T06:18:56.683Z,26.35
2019-03-23T06:21:25.098Z,32.28
2019-03-23T06:23:53.529Z,26.52
2019-03-23T06:26:22.211Z,28.35
2019-03-23T06:28:50.613Z,25.60
2019-03-23T06:31:19.285Z,25.25
2019-03-23T06:33:47.668Z,32.35
2019-03-23T06:36:16.053Z,26.82
2019-03-23T06:38:44.450Z,21.52
2019-03-23T06:41:12.820Z,29.35
2019-03-23T06:43:41.222Z,26.02
2019-03-23T06:46:09.596Z,25.00
2019-03-23T06:48:37.984Z,26.15
2019-03-23T06:51:06.624Z,26.55
2019-03-23T06:53:35.311Z,27.27
2019-03-23T06:56:03.859Z,28.75
2019-03-23T06:58:32.255Z,24.67
2019-03-23T07:01:00.635Z,28.12
2019-03-23T07:03:29.344Z,25.05
2019-03-23T07:05:57.736Z,26.42
2019-03-23T07:08:31.828Z,27.67
2019-03-23T07:10:56.243Z,25.50
2019-03-23T07:13:24.649Z,25.62
2019-03-23T07:15:53.297Z,24.30
2019-03-23T07:18:21.685Z,25.23
2019-03-23T07:20:50.071Z,23.20
2019-03-23T07:23:18.469Z,25.35
2019-03-23T07:25:46.854Z,25.68
2019-03-23T07:28:15.255Z,24.92
2019-03-23T07:30:43.644Z,24.02
2019-03-23T07:33:12.049Z,23.75
2019-03-23T07:35:40.437Z,24.77
2019-03-23T07:38:09.000Z,25.57
2019-03-23T07:40:37.380Z,24.35
2019-03-23T07:43:05.778Z,26.70
2019-03-23T07:45:34.163Z,25.60
2019-03-23T07:48:02.551Z,28.73
2019-03-23T07:50:30.951Z,25.52
2019-03-23T07:52:59.339Z,22.32
2019-03-23T07:55:27.836Z,26.40
2019-03-23T07:57:56.708Z,22.42
2019-03-23T08:00:25.292Z,19.77
2019-03-23T08:02:53.687Z,21.40
2019-03-23T08:05:22.353Z,18.17
2019-03-23T08:07:51.024Z,21.17
2019-03-23T08:10:27.580Z,20.43
2019-03-23T08:12:55.976Z,20.15
2019-03-23T08:15:24.391Z,23.07
2019-03-23T08:17:52.768Z,22.65
2019-03-23T08:20:21.193Z,22.20
2019-03-23T08:22:49.577Z,19.23
2019-03-23T08:25:17.985Z,20.23
2019-03-23T08:27:46.676Z,25.65
2019-03-23T08:30:15.187Z,23.38
2019-03-23T08:32:43.562Z,21.52
2019-03-23T08:35:12.249Z,21.85
2019-03-23T08:37:40.682Z,21.48
2019-03-23T08:40:09.142Z,23.52
2019-03-23T08:42:37.589Z,24.57
2019-03-23T08:45:07.793Z,27.17
2019-03-23T08:47:36.473Z,22.62
2019-03-23T08:50:06.900Z,28.12
2019-03-23T08:52:35.312Z,19.27
2019-03-23T08:55:04.686Z,26.65
2019-03-23T08:57:33.072Z,24.40
2019-03-23T09:00:01.767Z,20.40
2019-03-23T09:02:30.452Z,22.45
2019-03-23T09:04:58.852Z,25.80
2019-03-23T09:07:27.508Z,22.73
2019-03-23T09:09:59.367Z,20.27
2019-03-23T09:12:26.024Z,25.17
2019-03-23T09:14:54.696Z,21.75
2019-03-23T09:17:23.098Z,20.10
2019-03-23T09:19:51.485Z,20.65
2019-03-23T09:22:19.889Z,21.30
2019-03-23T09:24:48.529Z,23.38
2019-03-23T09:27:16.941Z,18.55
2019-03-23T09:29:45.324Z,22.93
2019-03-23T09:32:13.731Z,25.72
2019-03-23T09:34:42.126Z,24.00
2019-03-23T09:37:10.525Z,26.55
2019-03-23T09:39:38.910Z,26.80
2019-03-23T09:42:07.310Z,21.37
2019-03-23T09:44:35.697Z,23.95
2019-03-23T09:47:04.091Z,23.47
2019-03-23T09:49:32.480Z,22.32
2019-03-23T09:52:00.886Z,26.05
2019-03-23T09:54:29.276Z,25.55
2019-03-23T09:56:59.529Z,26.15
2019-03-23T09:59:27.827Z,26.93
2019-03-23T10:01:56.283Z,28.10
2019-03-23T10:04:24.703Z,29.25
2019-03-23T10:06:53.128Z,32.38
2019-03-23T10:09:21.488Z,35.78
2019-03-23T10:11:50.211Z,25.72
2019-03-23T10:14:18.602Z,27.62
2019-03-23T10:16:46.996Z,33.67
2019-03-23T10:19:15.460Z,29.80
2019-03-23T10:21:43.918Z,31.75
2019-03-23T10:24:12.296Z,34.33
2019-03-23T10:26:40.701Z,32.50
2019-03-23T10:29:09.181Z,35.00
2019-03-23T10:31:37.569Z,37.93
2019-03-23T10:34:05.984Z,38.75
2019-03-23T10:36:34.376Z,32.65
2019-03-23T10:39:04.045Z,37.23
2019-03-23T10:41:32.442Z,37.83
2019-03-23T10:44:00.836Z,37.95
2019-03-23T10:46:29.224Z,33.20
2019-03-23T10:48:57.624Z,42.23
2019-03-23T10:51:26.007Z,42.38
2019-03-23T10:53:54.548Z,43.02
2019-03-23T10:56:22.930Z,41.28
2019-03-23T10:58:51.332Z,48.78
2019-03-23T11:01:19.724Z,39.23
2019-03-23T11:03:48.127Z,45.15
2019-03-23T11:06:16.511Z,43.40
2019-03-23T11:08:44.930Z,45.15
2019-03-23T11:11:13.308Z,46.33
2019-03-23T11:13:41.708Z,44.93
2019-03-23T11:16:10.607Z,43.70
2019-03-23T11:18:39.030Z,42.43
2019-03-23T11:21:07.415Z,48.63
2019-03-23T11:23:35.816Z,50.17
2019-03-23T11:26:04.208Z,41.33
2019-03-23T11:28:32.646Z,49.40
2019-03-23T11:31:01.023Z,50.12
2019-03-23T11:33:29.417Z,49.08
2019-03-23T11:35:58.299Z,48.95
2019-03-23T11:38:26.798Z,48.45
2019-03-23T11:40:55.401Z,47.40
2019-03-23T11:43:23.947Z,41.88
2019-03-23T11:45:52.342Z,50.12
2019-03-23T11:48:20.750Z,53.60
2019-03-23T11:50:49.140Z,51.35
2019-03-23T11:53:17.527Z,50.17
2019-03-23T11:55:46.171Z,50.20
2019-03-23T11:58:14.567Z,51.30
2019-03-23T12:00:42.969Z,53.65
2019-03-23T12:03:11.357Z,54.33
2019-03-23T12:05:40.126Z,51.60
2019-03-23T12:08:08.576Z,54.27
2019-03-23T12:10:36.977Z,56.63
2019-03-23T12:13:05.364Z,52.58
2019-03-23T12:15:33.763Z,56.88
2019-03-23T12:18:02.151Z,56.37
2019-03-23T12:20:30.560Z,60.30
2019-03-23T12:22:58.950Z,59.25
2019-03-23T12:25:27.354Z,60.48
2019-03-23T12:27:56.369Z,58.23
2019-03-23T12:30:24.741Z,57.08
2019-03-23T12:32:53.142Z,54.15
2019-03-23T12:35:21.542Z,53.90
2019-03-23T12:37:49.928Z,53.10
2019-03-23T12:40:18.693Z,58.65
2019-03-23T12:42:47.096Z,51.85
2019-03-23T12:45:15.828Z,54.03
2019-03-23T12:47:44.227Z,53.52
2019-03-23T12:50:12.995Z,51.15
2019-03-23T12:52:41.416Z,60.33
2019-03-23T12:55:10.281Z,51.65
2019-03-23T12:57:38.673Z,52.78
2019-03-23T13:00:12.708Z,46.13
2019-03-23T13:02:41.347Z,44.35
2019-03-23T13:05:09.877Z,44.03
2019-03-23T13:07:38.272Z,48.58
2019-03-23T13:10:10.074Z,40.85
2019-03-23T13:12:38.469Z,47.83
2019-03-23T13:15:09.359Z,49.88
2019-03-23T13:17:38.085Z,47.90
2019-03-23T13:20:08.759Z,46.85
2019-03-23T13:22:37.281Z,38.08
2019-03-23T13:25:08.213Z,44.08
2019-03-23T13:27:36.779Z,51.40
2019-03-23T13:30:08.257Z,47.90
2019-03-23T13:32:36.656Z,43.10
2019-03-23T13:35:05.414Z,50.40
2019-03-23T13:37:33.819Z,53.90
2019-03-23T13:40:02.204Z,49.85
2019-03-23T13:42:30.602Z,51.95
2019-03-23T13:44:59.011Z,49.77
2019-03-23T13:47:27.392Z,51.95
2019-03-23T13:49:55.784Z,52.15
2019-03-23T13:52:24.203Z,55.48
2019-03-23T13:54:52.899Z,49.95
2019-03-23T13:57:21.302Z,51.90
2019-03-23T13:59:49.695Z,49.67
2019-03-23T14:02:18.107Z,51.37
2019-03-23T14:04:46.500Z,57.38
2019-03-23T14:07:15.105Z,56.08
2019-03-23T14:09:43.492Z,55.70
2019-03-23T14:12:11.876Z,57.17
2019-03-23T14:14:40.277Z,59.77
2019-03-23T14:17:08.657Z,55.52
2019-03-23T14:19:37.321Z,55.33
2019-03-23T14:22:05.712Z,47.30
2019-03-23T14:24:34.133Z,52.78
2019-03-23T14:27:02.771Z,54.35
2019-03-23T14:29:31.165Z,49.18
2019-03-23T14:31:59.556Z,61.95
2019-03-23T14:34:27.955Z,54.27
2019-03-23T14:36:56.443Z,45.05
2019-03-23T14:39:24.846Z,47.70
2019-03-23T14:41:53.232Z,52.43
2019-03-23T14:44:21.631Z,54.15
2019-03-23T14:46:50.022Z,51.30
2019-03-23T14:49:18.424Z,58.10
2019-03-23T14:51:46.813Z,58.58
2019-03-23T14:54:15.210Z,55.17
2019-03-23T14:56:43.838Z,50.23
2019-03-23T14:59:12.250Z,47.58
2019-03-23T15:01:40.642Z,48.98
2019-03-23T15:04:09.287Z,56.25
2019-03-23T15:06:37.676Z,52.50
2019-03-23T15:09:06.616Z,55.05
2019-03-23T15:11:35.248Z,55.08
2019-03-23T15:14:03.652Z,54.50
2019-03-23T15:16:32.079Z,52.48
2019-03-23T15:19:00.516Z,50.23
2019-03-23T15:21:28.903Z,51.60
2019-03-23T15:23:57.291Z,50.30
2019-03-23T15:26:25.942Z,55.83
2019-03-23T15:28:54.343Z,52.27
2019-03-23T15:31:22.752Z,48.10
2019-03-23T15:33:51.139Z,45.63
2019-03-23T15:36:19.533Z,58.52
2019-03-23T15:38:47.924Z,51.75
2019-03-23T15:41:16.330Z,53.48
2019-03-23T15:43:44.711Z,52.45
2019-03-23T15:46:13.116Z,45.00
2019-03-23T15:48:41.504Z,50.33
2019-03-23T15:51:09.903Z,49.70
2019-03-23T15:53:38.294Z,54.73
2019-03-23T15:56:06.704Z,56.90
2019-03-23T15:58:35.114Z,43.58
2019-03-23T16:01:03.487Z,55.35
2019-03-23T16:03:31.875Z,55.00
2019-03-23T16:06:00.268Z,56.13
2019-03-23T16:08:28.649Z,59.40
2019-03-23T16:10:57.041Z,51.23
2019-03-23T16:13:25.454Z,54.60
2019-03-23T16:15:53.853Z,55.05
2019-03-23T16:18:22.326Z,56.85
2019-03-23T16:20:50.715Z,54.35
2019-03-23T16:23:19.143Z,55.60
2019-03-23T16:25:47.528Z,59.63
2019-03-23T16:28:15.932Z,58.00
2019-03-23T16:30:44.347Z,62.38
2019-03-23T16:33:12.725Z,58.90
2019-03-23T16:35:41.106Z,57.25
2019-03-23T16:38:09.510Z,59.63
2019-03-23T16:40:37.887Z,65.92
2019-03-23T16:43:06.430Z,62.35
2019-03-23T16:45:34.878Z,62.93
2019-03-23T16:48:03.547Z,56.98
2019-03-23T16:50:31.930Z,74.62
2019-03-23T16:53:00.328Z,67.65
2019-03-23T16:55:28.720Z,80.92
2019-03-23T16:57:57.192Z,71.47
2019-03-23T17:00:34.845Z,70.25
2019-03-23T17:03:03.781Z,74.65
2019-03-23T17:05:32.243Z,75.40
2019-03-23T17:08:00.643Z,69.17
2019-03-23T17:10:29.099Z,75.80
2019-03-23T17:12:57.731Z,69.80
2019-03-23T17:15:26.137Z,79.45
2019-03-23T17:17:54.752Z,75.50
2019-03-23T17:20:23.208Z,77.50
2019-03-23T17:22:51.609Z,70.95
2019-03-23T17:25:20.010Z,68.62
2019-03-23T17:27:48.398Z,69.50
2019-03-23T17:30:17.020Z,74.55
2019-03-23T17:32:45.418Z,85.10
2019-03-23T17:35:13.804Z,79.60
2019-03-23T17:37:42.207Z,77.15
2019-03-23T17:40:10.728Z,83.97
2019-03-23T17:42:39.120Z,83.90
2019-03-23T17:45:07.852Z,87.45
2019-03-23T17:47:36.257Z,89.35
2019-03-23T17:50:06.786Z,89.37
2019-03-23T17:55:02.995Z,92.92
2019-03-23T17:57:31.376Z,86.10
2019-03-23T17:59:59.779Z,94.28
2019-03-23T18:02:28.163Z,90.67
2019-03-23T18:04:56.552Z,91.35
2019-03-23T18:07:25.181Z,91.70
2019-03-23T18:09:53.571Z,88.05
2019-03-23T18:12:21.948Z,97.17
2019-03-23T18:14:50.349Z,99.07
2019-03-23T18:17:18.736Z,103.75
2019-03-23T18:19:47.137Z,91.50
2019-03-23T18:22:15.523Z,93.95
2019-03-23T18:24:43.925Z,95.83
2019-03-23T18:27:12.315Z,102.92
2019-03-23T18:29:40.721Z,108.95
2019-03-23T18:32:09.113Z,97.62
2019-03-23T18:34:37.514Z,106.35
2019-03-23T18:37:05.933Z,102.50
2019-03-23T18:39:34.349Z,102.62
2019-03-23T18:42:02.723Z,91.72
2019-03-23T18:44:31.699Z,97.82
2019-03-23T18:47:00.411Z,109.05
2019-03-23T18:49:28.809Z,95.03
2019-03-23T18:51:57.210Z,101.60
2019-03-23T18:54:25.616Z,102.42
2019-03-23T18:56:54.002Z,99.45
2019-03-23T18:59:22.392Z,107.22
2019-03-23T19:01:50.796Z,107.00
2019-03-23T19:04:19.582Z,107.83
2019-03-23T19:06:47.979Z,110.48
2019-03-23T19:09:16.385Z,107.15
2019-03-23T19:11:44.787Z,106.37
2019-03-23T19:14:13.180Z,101.55
2019-03-23T19:16:41.586Z,105.67
2019-03-23T19:19:10.272Z,119.37
2019-03-23T19:21:38.686Z,104.27
2019-03-23T19:24:07.341Z,112.88
2019-03-23T19:26:35.745Z,104.63
2019-03-23T19:29:04.136Z,107.90
2019-03-23T19:31:32.532Z,118.05
2019-03-23T19:34:01.174Z,104.40
2019-03-23T19:36:29.567Z,101.72
2019-03-23T19:38:57.964Z,108.25
2019-03-23T19:41:26.377Z,115.55
2019-03-23T19:43:54.759Z,112.45
2019-03-23T19:46:23.486Z,120.50
2019-03-23T19:48:52.168Z,114.52
2019-03-23T19:51:20.793Z,117.57
2019-03-23T19:53:49.180Z,112.35
2019-03-23T19:56:17.920Z,114.30
2019-03-23T19:58:46.312Z,110.90
2019-03-23T20:01:14.707Z,119.42
2019-03-23T20:03:43.115Z,122.67
2019-03-23T20:06:11.515Z,114.45
2019-03-23T20:08:39.924Z,119.65
2019-03-23T20:11:08.308Z,119.37
2019-03-23T20:13:36.709Z,110.95
2019-03-23T20:16:05.110Z,117.42
2019-03-23T20:18:33.502Z,107.67
2019-03-23T20:21:01.893Z,112.80
2019-03-23T20:23:30.299Z,115.05
2019-03-23T20:25:58.689Z,125.53
2019-03-23T20:28:27.097Z,114.08
2019-03-23T20:30:55.472Z,125.25
2019-03-23T20:33:23.871Z,122.25
2019-03-23T20:35:52.261Z,121.25
2019-03-23T20:38:20.664Z,110.45
2019-03-23T20:40:49.052Z,115.28
2019-03-23T20:43:17.459Z,114.28
2019-03-23T20:45:45.852Z,129.47
2019-03-23T20:48:14.593Z,121.90
2019-03-23T20:50:44.120Z,117.03
2019-03-23T20:53:14.820Z,127.55
2019-03-23T20:55:43.224Z,124.38
2019-03-23T20:58:11.627Z,121.37
2019-03-23T21:00:40.090Z,111.85
2019-03-23T21:03:08.489Z,122.42
2019-03-23T21:05:36.960Z,124.53
2019-03-23T21:08:05.923Z,126.82
2019-03-23T21:10:34.662Z,122.87
2019-03-23T21:13:03.048Z,114.95
2019-03-23T21:15:31.446Z,123.78
2019-03-23T21:17:59.841Z,110.92
2019-03-23T21:20:28.240Z,117.13
2019-03-23T21:22:56.623Z,109.12
2019-03-23T21:25:25.028Z,120.55
2019-03-23T21:27:53.422Z,123.55
2019-03-23T21:30:21.956Z,111.57
2019-03-23T21:32:50.600Z,112.35
2019-03-23T21:35:19.013Z,110.50
2019-03-23T21:37:47.399Z,111.28
2019-03-23T21:40:15.895Z,111.77
2019-03-23T21:42:44.271Z,116.60
2019-03-23T21:45:13.221Z,124.90
2019-03-23T21:47:41.603Z,117.03
2019-03-23T21:50:10.083Z,125.40
2019-03-23T21:52:38.780Z,122.98
2019-03-23T21:55:07.403Z,115.28
2019-03-23T21:57:35.932Z,108.03
2019-03-23T22:00:06.076Z,112.97
2019-03-23T22:02:34.471Z,119.60
2019-03-23T22:05:02.935Z,114.50
2019-03-23T22:07:31.327Z,121.13
2019-03-23T22:09:59.980Z,115.25
2019-03-23T22:12:28.367Z,123.95
2019-03-23T22:14:58.040Z,110.37
2019-03-23T22:17:26.432Z,116.90
2019-03-23T22:19:54.828Z,116.75
2019-03-23T22:22:23.225Z,105.80
2019-03-23T22:24:51.618Z,99.70
2019-03-23T22:27:19.996Z,108.95
2019-03-23T22:29:48.416Z,115.85
2019-03-23T22:32:17.148Z,100.05
2019-03-23T22:34:45.564Z,104.35
2019-03-23T22:37:13.964Z,103.72
2019-03-23T22:39:42.353Z,101.18
2019-03-23T22:42:11.077Z,98.55
2019-03-23T22:44:39.537Z,106.63
2019-03-23T22:47:07.938Z,80.42
2019-03-23T22:49:36.332Z,94.52
2019-03-23T22:52:04.719Z,91.02
2019-03-23T22:54:33.120Z,104.85
2019-03-23T22:57:01.865Z,103.70
2019-03-23T22:59:30.275Z,103.12
2019-03-23T23:01:58.746Z,99.10
2019-03-23T23:04:27.146Z,92.60
2019-03-23T23:06:55.536Z,94.03
2019-03-23T23:09:23.915Z,92.27
2019-03-23T23:11:52.565Z,103.22
2019-03-23T23:14:20.945Z,89.13
2019-03-23T23:16:49.356Z,99.32
2019-03-23T23:19:17.733Z,97.55
2019-03-23T23:21:46.383Z,82.80
2019-03-23T23:24:14.769Z,98.22
2019-03-23T23:26:43.171Z,95.40
2019-03-23T23:29:11.559Z,95.07
2019-03-23T23:31:39.952Z,88.92
2019-03-23T23:34:08.336Z,84.35
2019-03-23T23:36:36.723Z,94.13
2019-03-23T23:39:07.043Z,86.00
2019-03-23T23:41:35.432Z,77.32
2019-03-23T23:44:04.151Z,93.47
2019-03-23T23:46:32.541Z,95.40
2019-03-23T23:49:00.944Z,82.55
2019-03-23T23:51:29.328Z,87.15
2019-03-23T23:53:57.715Z,81.63
2019-03-23T23:56:26.113Z,85.55
2019-03-23T23:58:54.499Z,72.80
